sensor_id;sensor_type;location;lat;lon;timestamp;temperature;humidity
20759;DHT22;10539;53.686;9.158;2023-05-24T00:02:06;11.80;99.90
20759;DHT22;10539;53.686;9.158;2023-05-24T00:04:32;11.70;99.90
20759;DHT22;10539;53.686;9.158;2023-05-24T00:06:58;11.80;99.90
20759;DHT22;10539;53.686;9.158;2023-05-24T00:09:29;11.70;99.90
20759;DHT22;10539;53.686;9.158;2023-05-24T00:11:55;11.70;99.90
20759;DHT22;10539;53.686;9.158;2023-05-24T00:14:21;11.70;99.90
20759;DHT22;10539;53.686;9.158;2023-05-24T00:16:47;11.70;99.90
20759;DHT22;10539;53.686;9.158;2023-05-24T00:19:13;11.70;99.90
20759;DHT22;10539;53.686;9.158;2023-05-24T00:21:46;11.70;99.90
20759;DHT22;10539;53.686;9.158;2023-05-24T00:24:12;11.70;99.90
20759;DHT22;10539;53.686;9.158;2023-05-24T00:26:38;11.70;99.90
20759;DHT22;10539;53.686;9.158;2023-05-24T00:29:04;11.70;99.90
20759;DHT22;10539;53.686;9.158;2023-05-24T00:31:31;11.70;99.90
20759;DHT22;10539;53.686;9.158;2023-05-24T00:33:56;11.80;99.90
20759;DHT22;10539;53.686;9.158;2023-05-24T00:36:22;11.70;99.90
20759;DHT22;10539;53.686;9.158;2023-05-24T00:38:48;11.70;99.90
20759;DHT22;10539;53.686;9.158;2023-05-24T00:41:14;11.70;99.90
20759;DHT22;10539;53.686;9.158;2023-05-24T00:43:40;11.70;99.90
20759;DHT22;10539;53.686;9.158;2023-05-24T00:46:17;11.70;99.90
20759;DHT22;10539;53.686;9.158;2023-05-24T00:48:44;11.70;99.90
20759;DHT22;10539;53.686;9.158;2023-05-24T00:51:11;11.60;99.90
20759;DHT22;10539;53.686;9.158;2023-05-24T00:53:39;11.60;99.90
20759;DHT22;10539;53.686;9.158;2023-05-24T00:56:06;11.60;99.90
20759;DHT22;10539;53.686;9.158;2023-05-24T00:58:32;11.70;99.90
20759;DHT22;10539;53.686;9.158;2023-05-24T01:00:59;11.70;99.90
20759;DHT22;10539;53.686;9.158;2023-05-24T01:03:26;11.70;99.90
20759;DHT22;10539;53.686;9.158;2023-05-24T01:05:58;11.70;99.90
20759;DHT22;10539;53.686;9.158;2023-05-24T01:08:32;11.70;99.90
20759;DHT22;10539;53.686;9.158;2023-05-24T01:11:12;11.80;99.90
20759;DHT22;10539;53.686;9.158;2023-05-24T01:13:53;11.80;99.90
20759;DHT22;10539;53.686;9.158;2023-05-24T01:16:28;11.70;99.90
20759;DHT22;10539;53.686;9.158;2023-05-24T01:19:00;11.80;99.90
20759;DHT22;10539;53.686;9.158;2023-05-24T01:21:54;11.80;99.90
20759;DHT22;10539;53.686;9.158;2023-05-24T01:24:52;11.80;99.90
20759;DHT22;10539;53.686;9.158;2023-05-24T01:27:21;11.80;99.90
20759;DHT22;10539;53.686;9.158;2023-05-24T01:29:49;11.80;99.90
20759;DHT22;10539;53.686;9.158;2023-05-24T01:32:20;11.80;99.90
20759;DHT22;10539;53.686;9.158;2023-05-24T01:34:46;11.80;99.90
20759;DHT22;10539;53.686;9.158;2023-05-24T01:37:12;11.80;99.90
20759;DHT22;10539;53.686;9.158;2023-05-24T01:39:38;11.80;99.90
20759;DHT22;10539;53.686;9.158;2023-05-24T01:42:26;11.80;99.90
20759;DHT22;10539;53.686;9.158;2023-05-24T01:45:32;11.80;99.90
20759;DHT22;10539;53.686;9.158;2023-05-24T01:48:30;11.80;99.90
20759;DHT22;10539;53.686;9.158;2023-05-24T01:51:07;11.90;99.90
20759;DHT22;10539;53.686;9.158;2023-05-24T01:53:40;11.80;99.90
20759;DHT22;10539;53.686;9.158;2023-05-24T01:56:10;11.90;99.90
20759;DHT22;10539;53.686;9.158;2023-05-24T01:58:39;11.80;99.90
20759;DHT22;10539;53.686;9.158;2023-05-24T02:01:07;11.80;99.90
20759;DHT22;10539;53.686;9.158;2023-05-24T02:03:33;11.80;99.90
20759;DHT22;10539;53.686;9.158;2023-05-24T02:05:59;11.80;99.90
20759;DHT22;10539;53.686;9.158;2023-05-24T02:08:26;11.80;99.90
20759;DHT22;10539;53.686;9.158;2023-05-24T02:10:51;11.80;99.90
20759;DHT22;10539;53.686;9.158;2023-05-24T02:13:17;11.90;99.90
20759;DHT22;10539;53.686;9.158;2023-05-24T02:15:44;11.80;99.90
20759;DHT22;10539;53.686;9.158;2023-05-24T02:18:10;11.80;99.90
20759;DHT22;10539;53.686;9.158;2023-05-24T02:20:37;11.80;99.90
20759;DHT22;10539;53.686;9.158;2023-05-24T02:23:03;11.80;99.90
20759;DHT22;10539;53.686;9.158;2023-05-24T02:25:29;11.80;99.90
20759;DHT22;10539;53.686;9.158;2023-05-24T02:27:57;11.80;99.90
20759;DHT22;10539;53.686;9.158;2023-05-24T02:30:22;11.80;99.90
20759;DHT22;10539;53.686;9.158;2023-05-24T02:32:48;11.80;99.90
20759;DHT22;10539;53.686;9.158;2023-05-24T02:35:14;11.80;99.90
20759;DHT22;10539;53.686;9.158;2023-05-24T02:37:40;11.70;99.90
20759;DHT22;10539;53.686;9.158;2023-05-24T02:40:06;11.80;99.90
20759;DHT22;10539;53.686;9.158;2023-05-24T02:42:32;11.70;99.90
20759;DHT22;10539;53.686;9.158;2023-05-24T02:44:58;11.70;99.90
20759;DHT22;10539;53.686;9.158;2023-05-24T02:47:24;11.60;99.90
20759;DHT22;10539;53.686;9.158;2023-05-24T02:49:54;11.60;99.90
20759;DHT22;10539;53.686;9.158;2023-05-24T02:52:20;11.50;99.90
20759;DHT22;10539;53.686;9.158;2023-05-24T02:54:48;11.50;99.90
20759;DHT22;10539;53.686;9.158;2023-05-24T02:57:14;11.50;99.90
20759;DHT22;10539;53.686;9.158;2023-05-24T02:59:41;11.60;99.90
20759;DHT22;10539;53.686;9.158;2023-05-24T03:02:06;11.60;99.90
20759;DHT22;10539;53.686;9.158;2023-05-24T03:04:32;11.60;99.90
20759;DHT22;10539;53.686;9.158;2023-05-24T03:06:58;11.60;99.90
20759;DHT22;10539;53.686;9.158;2023-05-24T03:09:23;11.60;99.90
20759;DHT22;10539;53.686;9.158;2023-05-24T03:11:49;11.60;99.90
20759;DHT22;10539;53.686;9.158;2023-05-24T03:14:16;11.60;99.90
20759;DHT22;10539;53.686;9.158;2023-05-24T03:16:41;11.60;99.90
20759;DHT22;10539;53.686;9.158;2023-05-24T03:19:07;11.60;99.90
20759;DHT22;10539;53.686;9.158;2023-05-24T03:21:33;11.60;99.90
20759;DHT22;10539;53.686;9.158;2023-05-24T03:23:59;11.60;99.90
20759;DHT22;10539;53.686;9.158;2023-05-24T03:26:26;11.70;99.90
20759;DHT22;10539;53.686;9.158;2023-05-24T03:28:52;11.70;99.90
20759;DHT22;10539;53.686;9.158;2023-05-24T03:31:19;11.70;99.90
20759;DHT22;10539;53.686;9.158;2023-05-24T03:33:45;11.70;99.90
20759;DHT22;10539;53.686;9.158;2023-05-24T03:36:11;11.70;99.90
20759;DHT22;10539;53.686;9.158;2023-05-24T03:38:36;11.80;99.90
20759;DHT22;10539;53.686;9.158;2023-05-24T03:41:02;11.80;99.90
20759;DHT22;10539;53.686;9.158;2023-05-24T03:43:28;11.80;99.90
20759;DHT22;10539;53.686;9.158;2023-05-24T03:45:54;11.80;99.90
20759;DHT22;10539;53.686;9.158;2023-05-24T03:48:19;11.80;99.90
20759;DHT22;10539;53.686;9.158;2023-05-24T03:50:46;11.80;99.90
20759;DHT22;10539;53.686;9.158;2023-05-24T03:53:12;11.80;99.90
20759;DHT22;10539;53.686;9.158;2023-05-24T03:55:38;11.80;99.90
20759;DHT22;10539;53.686;9.158;2023-05-24T03:58:03;11.80;99.90
20759;DHT22;10539;53.686;9.158;2023-05-24T04:00:29;11.80;99.90
20759;DHT22;10539;53.686;9.158;2023-05-24T04:02:55;11.90;99.90
20759;DHT22;10539;53.686;9.158;2023-05-24T04:05:21;11.90;99.90
20759;DHT22;10539;53.686;9.158;2023-05-24T04:07:51;11.90;99.90
20759;DHT22;10539;53.686;9.158;2023-05-24T04:10:17;11.90;99.90
20759;DHT22;10539;53.686;9.158;2023-05-24T04:12:43;11.90;99.90
20759;DHT22;10539;53.686;9.158;2023-05-24T04:15:10;11.90;99.90
20759;DHT22;10539;53.686;9.158;2023-05-24T04:17:42;11.90;99.90
20759;DHT22;10539;53.686;9.158;2023-05-24T04:20:10;12.00;99.90
20759;DHT22;10539;53.686;9.158;2023-05-24T04:22:36;12.00;99.90
20759;DHT22;10539;53.686;9.158;2023-05-24T04:25:02;12.10;99.90
20759;DHT22;10539;53.686;9.158;2023-05-24T04:27:28;12.10;99.90
20759;DHT22;10539;53.686;9.158;2023-05-24T04:29:54;12.10;99.90
20759;DHT22;10539;53.686;9.158;2023-05-24T04:32:20;12.00;99.90
20759;DHT22;10539;53.686;9.158;2023-05-24T04:34:48;12.00;99.90
20759;DHT22;10539;53.686;9.158;2023-05-24T04:37:15;12.00;99.90
20759;DHT22;10539;53.686;9.158;2023-05-24T04:39:44;12.00;99.90
20759;DHT22;10539;53.686;9.158;2023-05-24T04:42:13;12.00;99.90
20759;DHT22;10539;53.686;9.158;2023-05-24T04:44:40;12.00;99.90
20759;DHT22;10539;53.686;9.158;2023-05-24T04:47:06;11.90;99.90
20759;DHT22;10539;53.686;9.158;2023-05-24T04:49:32;12.00;99.90
20759;DHT22;10539;53.686;9.158;2023-05-24T04:51:57;12.00;99.90
20759;DHT22;10539;53.686;9.158;2023-05-24T04:54:23;12.00;99.90
20759;DHT22;10539;53.686;9.158;2023-05-24T04:56:49;12.00;99.90
20759;DHT22;10539;53.686;9.158;2023-05-24T04:59:15;12.00;99.90
20759;DHT22;10539;53.686;9.158;2023-05-24T05:01:40;12.00;99.90
20759;DHT22;10539;53.686;9.158;2023-05-24T05:04:06;12.10;99.90
20759;DHT22;10539;53.686;9.158;2023-05-24T05:06:32;12.10;99.90
20759;DHT22;10539;53.686;9.158;2023-05-24T05:09:04;12.20;99.90
20759;DHT22;10539;53.686;9.158;2023-05-24T05:11:30;12.20;99.90
20759;DHT22;10539;53.686;9.158;2023-05-24T05:13:56;12.20;99.90
20759;DHT22;10539;53.686;9.158;2023-05-24T05:16:21;12.20;99.90
20759;DHT22;10539;53.686;9.158;2023-05-24T05:18:47;12.30;99.90
20759;DHT22;10539;53.686;9.158;2023-05-24T05:21:13;12.30;99.90
20759;DHT22;10539;53.686;9.158;2023-05-24T05:23:38;12.20;99.90
20759;DHT22;10539;53.686;9.158;2023-05-24T05:26:05;12.20;99.90
20759;DHT22;10539;53.686;9.158;2023-05-24T05:28:31;12.20;99.90
20759;DHT22;10539;53.686;9.158;2023-05-24T05:30:57;12.20;99.90
20759;DHT22;10539;53.686;9.158;2023-05-24T05:33:23;12.20;99.90
20759;DHT22;10539;53.686;9.158;2023-05-24T05:35:49;12.20;99.90
20759;DHT22;10539;53.686;9.158;2023-05-24T05:38:15;12.20;99.90
20759;DHT22;10539;53.686;9.158;2023-05-24T05:40:40;12.10;99.90
20759;DHT22;10539;53.686;9.158;2023-05-24T05:43:06;12.10;99.90
20759;DHT22;10539;53.686;9.158;2023-05-24T05:45:33;12.20;99.90
20759;DHT22;10539;53.686;9.158;2023-05-24T05:47:59;12.20;99.90
20759;DHT22;10539;53.686;9.158;2023-05-24T05:50:25;12.20;99.90
20759;DHT22;10539;53.686;9.158;2023-05-24T05:52:51;12.20;99.90
20759;DHT22;10539;53.686;9.158;2023-05-24T05:55:16;12.20;99.90
20759;DHT22;10539;53.686;9.158;2023-05-24T05:57:42;12.20;99.90
20759;DHT22;10539;53.686;9.158;2023-05-24T06:00:08;12.20;99.90
20759;DHT22;10539;53.686;9.158;2023-05-24T06:02:34;12.30;99.90
20759;DHT22;10539;53.686;9.158;2023-05-24T06:05:00;12.30;99.90
20759;DHT22;10539;53.686;9.158;2023-05-24T06:07:25;12.20;99.90
20759;DHT22;10539;53.686;9.158;2023-05-24T06:09:51;12.20;99.90
20759;DHT22;10539;53.686;9.158;2023-05-24T06:12:17;12.20;99.90
20759;DHT22;10539;53.686;9.158;2023-05-24T06:14:43;12.30;99.90
20759;DHT22;10539;53.686;9.158;2023-05-24T06:17:08;12.30;99.90
20759;DHT22;10539;53.686;9.158;2023-05-24T06:19:34;12.40;99.90
20759;DHT22;10539;53.686;9.158;2023-05-24T06:22:00;12.40;99.90
20759;DHT22;10539;53.686;9.158;2023-05-24T06:24:26;12.50;99.90
20759;DHT22;10539;53.686;9.158;2023-05-24T06:26:53;12.50;99.90
20759;DHT22;10539;53.686;9.158;2023-05-24T06:29:19;12.50;99.90
20759;DHT22;10539;53.686;9.158;2023-05-24T06:31:46;12.60;99.90
20759;DHT22;10539;53.686;9.158;2023-05-24T06:34:13;12.70;99.90
20759;DHT22;10539;53.686;9.158;2023-05-24T06:36:42;12.70;99.90
20759;DHT22;10539;53.686;9.158;2023-05-24T06:39:09;12.80;99.90
20759;DHT22;10539;53.686;9.158;2023-05-24T06:41:35;12.80;99.90
20759;DHT22;10539;53.686;9.158;2023-05-24T06:44:02;12.80;99.90
20759;DHT22;10539;53.686;9.158;2023-05-24T06:46:28;12.80;99.90
20759;DHT22;10539;53.686;9.158;2023-05-24T06:48:53;12.80;99.90
20759;DHT22;10539;53.686;9.158;2023-05-24T06:51:19;12.80;99.90
20759;DHT22;10539;53.686;9.158;2023-05-24T06:53:45;12.90;99.90
20759;DHT22;10539;53.686;9.158;2023-05-24T06:56:11;12.90;99.90
20759;DHT22;10539;53.686;9.158;2023-05-24T06:58:36;12.90;99.90
20759;DHT22;10539;53.686;9.158;2023-05-24T07:01:02;12.90;99.90
20759;DHT22;10539;53.686;9.158;2023-05-24T07:03:30;13.00;99.90
20759;DHT22;10539;53.686;9.158;2023-05-24T07:05:56;13.10;99.90
20759;DHT22;10539;53.686;9.158;2023-05-24T07:08:23;13.10;99.90
20759;DHT22;10539;53.686;9.158;2023-05-24T07:10:49;13.30;99.90
20759;DHT22;10539;53.686;9.158;2023-05-24T07:13:15;13.30;99.90
20759;DHT22;10539;53.686;9.158;2023-05-24T07:15:41;13.40;99.90
20759;DHT22;10539;53.686;9.158;2023-05-24T07:18:07;13.50;99.90
20759;DHT22;10539;53.686;9.158;2023-05-24T07:20:33;13.50;99.90
20759;DHT22;10539;53.686;9.158;2023-05-24T07:22:59;13.60;99.90
20759;DHT22;10539;53.686;9.158;2023-05-24T07:25:25;13.60;99.90
20759;DHT22;10539;53.686;9.158;2023-05-24T07:27:51;13.60;99.90
20759;DHT22;10539;53.686;9.158;2023-05-24T07:30:17;13.60;99.90
20759;DHT22;10539;53.686;9.158;2023-05-24T07:32:43;13.50;99.90
20759;DHT22;10539;53.686;9.158;2023-05-24T07:35:10;13.50;99.90
20759;DHT22;10539;53.686;9.158;2023-05-24T07:37:39;13.50;99.90
20759;DHT22;10539;53.686;9.158;2023-05-24T07:40:06;13.50;99.90
20759;DHT22;10539;53.686;9.158;2023-05-24T07:42:36;13.50;99.90
20759;DHT22;10539;53.686;9.158;2023-05-24T07:45:02;13.40;99.90
20759;DHT22;10539;53.686;9.158;2023-05-24T07:47:28;13.40;99.90
20759;DHT22;10539;53.686;9.158;2023-05-24T07:49:54;13.40;99.90
20759;DHT22;10539;53.686;9.158;2023-05-24T07:52:20;13.40;99.90
20759;DHT22;10539;53.686;9.158;2023-05-24T07:54:48;13.40;99.90
20759;DHT22;10539;53.686;9.158;2023-05-24T07:57:13;13.40;99.90
20759;DHT22;10539;53.686;9.158;2023-05-24T07:59:39;13.50;99.90
20759;DHT22;10539;53.686;9.158;2023-05-24T08:02:05;13.50;99.90
20759;DHT22;10539;53.686;9.158;2023-05-24T08:04:32;13.40;99.90
20759;DHT22;10539;53.686;9.158;2023-05-24T08:06:58;13.40;99.90
20759;DHT22;10539;53.686;9.158;2023-05-24T08:09:26;13.40;99.90
20759;DHT22;10539;53.686;9.158;2023-05-24T08:11:54;13.40;99.90
20759;DHT22;10539;53.686;9.158;2023-05-24T08:14:21;13.40;99.90
20759;DHT22;10539;53.686;9.158;2023-05-24T08:16:47;13.40;99.90
20759;DHT22;10539;53.686;9.158;2023-05-24T08:19:13;13.40;99.90
20759;DHT22;10539;53.686;9.158;2023-05-24T08:21:39;13.40;99.90
20759;DHT22;10539;53.686;9.158;2023-05-24T08:24:06;13.40;99.90
20759;DHT22;10539;53.686;9.158;2023-05-24T08:26:32;13.40;99.90
20759;DHT22;10539;53.686;9.158;2023-05-24T08:28:58;13.40;99.90
20759;DHT22;10539;53.686;9.158;2023-05-24T08:31:24;13.50;99.90
20759;DHT22;10539;53.686;9.158;2023-05-24T08:33:50;13.50;99.90
20759;DHT22;10539;53.686;9.158;2023-05-24T08:36:16;13.60;99.90
20759;DHT22;10539;53.686;9.158;2023-05-24T08:38:42;13.60;99.90
20759;DHT22;10539;53.686;9.158;2023-05-24T08:41:10;13.70;99.90
20759;DHT22;10539;53.686;9.158;2023-05-24T08:43:37;13.70;99.90
20759;DHT22;10539;53.686;9.158;2023-05-24T08:46:03;13.70;99.90
20759;DHT22;10539;53.686;9.158;2023-05-24T08:48:30;13.70;99.90
20759;DHT22;10539;53.686;9.158;2023-05-24T08:50:57;13.70;99.90
20759;DHT22;10539;53.686;9.158;2023-05-24T08:53:23;13.70;99.90
20759;DHT22;10539;53.686;9.158;2023-05-24T08:55:49;13.80;99.90
20759;DHT22;10539;53.686;9.158;2023-05-24T08:58:19;13.80;99.90
20759;DHT22;10539;53.686;9.158;2023-05-24T09:00:45;13.90;99.90
20759;DHT22;10539;53.686;9.158;2023-05-24T09:03:12;14.00;99.90
20759;DHT22;10539;53.686;9.158;2023-05-24T09:05:40;14.00;99.90
20759;DHT22;10539;53.686;9.158;2023-05-24T09:08:06;14.10;99.90
20759;DHT22;10539;53.686;9.158;2023-05-24T09:10:33;14.10;99.90
20759;DHT22;10539;53.686;9.158;2023-05-24T09:13:01;14.10;99.90
20759;DHT22;10539;53.686;9.158;2023-05-24T09:15:27;14.10;99.90
20759;DHT22;10539;53.686;9.158;2023-05-24T09:17:53;14.10;99.90
20759;DHT22;10539;53.686;9.158;2023-05-24T09:20:20;14.20;99.90
20759;DHT22;10539;53.686;9.158;2023-05-24T09:22:50;14.10;99.90
20759;DHT22;10539;53.686;9.158;2023-05-24T09:25:17;14.10;99.90
20759;DHT22;10539;53.686;9.158;2023-05-24T09:27:49;14.10;99.90
20759;DHT22;10539;53.686;9.158;2023-05-24T09:30:15;14.20;99.90
20759;DHT22;10539;53.686;9.158;2023-05-24T09:32:59;14.20;99.90
20759;DHT22;10539;53.686;9.158;2023-05-24T09:35:26;14.20;99.90
20759;DHT22;10539;53.686;9.158;2023-05-24T09:37:56;14.20;99.90
20759;DHT22;10539;53.686;9.158;2023-05-24T09:40:25;14.30;99.90
20759;DHT22;10539;53.686;9.158;2023-05-24T09:43:09;14.30;99.90
20759;DHT22;10539;53.686;9.158;2023-05-24T09:48:12;14.50;99.90
20759;DHT22;10539;53.686;9.158;2023-05-24T09:50:38;14.60;99.90
20759;DHT22;10539;53.686;9.158;2023-05-24T09:53:04;14.60;99.90
20759;DHT22;10539;53.686;9.158;2023-05-24T09:55:35;14.80;99.90
20759;DHT22;10539;53.686;9.158;2023-05-24T09:58:03;14.90;99.90
20759;DHT22;10539;53.686;9.158;2023-05-24T10:00:37;15.10;99.90
20759;DHT22;10539;53.686;9.158;2023-05-24T10:03:05;15.20;99.90
20759;DHT22;10539;53.686;9.158;2023-05-24T10:05:32;15.30;99.90
20759;DHT22;10539;53.686;9.158;2023-05-24T10:07:59;15.40;99.90
20759;DHT22;10539;53.686;9.158;2023-05-24T10:10:30;15.40;99.90
20759;DHT22;10539;53.686;9.158;2023-05-24T10:12:56;15.40;99.90
20759;DHT22;10539;53.686;9.158;2023-05-24T10:15:23;15.40;99.90
20759;DHT22;10539;53.686;9.158;2023-05-24T10:17:50;15.30;99.90
20759;DHT22;10539;53.686;9.158;2023-05-24T10:20:16;15.30;99.90
20759;DHT22;10539;53.686;9.158;2023-05-24T10:22:44;15.20;99.90
20759;DHT22;10539;53.686;9.158;2023-05-24T10:25:16;15.20;99.90
20759;DHT22;10539;53.686;9.158;2023-05-24T10:27:47;15.30;99.90
20759;DHT22;10539;53.686;9.158;2023-05-24T10:30:19;15.20;99.90
20759;DHT22;10539;53.686;9.158;2023-05-24T10:32:49;15.20;99.90
20759;DHT22;10539;53.686;9.158;2023-05-24T10:35:17;15.20;99.90
20759;DHT22;10539;53.686;9.158;2023-05-24T10:37:47;15.30;99.90
20759;DHT22;10539;53.686;9.158;2023-05-24T10:40:18;15.20;99.90
20759;DHT22;10539;53.686;9.158;2023-05-24T10:42:48;15.20;99.90
20759;DHT22;10539;53.686;9.158;2023-05-24T10:50:52;15.20;99.90
20759;DHT22;10539;53.686;9.158;2023-05-24T10:53:20;15.20;99.90
20759;DHT22;10539;53.686;9.158;2023-05-24T10:55:57;15.20;99.90
20759;DHT22;10539;53.686;9.158;2023-05-24T11:00:58;15.20;99.90
20759;DHT22;10539;53.686;9.158;2023-05-24T11:03:24;15.10;99.90
20759;DHT22;10539;53.686;9.158;2023-05-24T11:05:52;15.00;99.90
20759;DHT22;10539;53.686;9.158;2023-05-24T11:08:31;15.00;99.90
20759;DHT22;10539;53.686;9.158;2023-05-24T11:11:02;14.90;99.90
20759;DHT22;10539;53.686;9.158;2023-05-24T11:13:29;14.90;99.90
20759;DHT22;10539;53.686;9.158;2023-05-24T11:15:56;14.80;99.90
20759;DHT22;10539;53.686;9.158;2023-05-24T11:18:22;14.80;99.90
20759;DHT22;10539;53.686;9.158;2023-05-24T11:20:48;14.80;99.90
20759;DHT22;10539;53.686;9.158;2023-05-24T11:23:15;14.60;99.90
20759;DHT22;10539;53.686;9.158;2023-05-24T11:25:41;14.60;99.90
20759;DHT22;10539;53.686;9.158;2023-05-24T11:28:11;14.60;99.90
20759;DHT22;10539;53.686;9.158;2023-05-24T11:30:45;14.60;99.90
20759;DHT22;10539;53.686;9.158;2023-05-24T11:33:15;14.60;99.90
20759;DHT22;10539;53.686;9.158;2023-05-24T11:35:41;14.60;99.90
20759;DHT22;10539;53.686;9.158;2023-05-24T11:38:12;14.60;99.90
20759;DHT22;10539;53.686;9.158;2023-05-24T11:40:42;14.70;99.90
20759;DHT22;10539;53.686;9.158;2023-05-24T11:43:11;14.60;99.90
20759;DHT22;10539;53.686;9.158;2023-05-24T11:45:41;14.60;99.90
20759;DHT22;10539;53.686;9.158;2023-05-24T11:48:08;14.60;99.90
20759;DHT22;10539;53.686;9.158;2023-05-24T11:50:42;14.60;99.90
20759;DHT22;10539;53.686;9.158;2023-05-24T11:53:12;14.60;99.90
20759;DHT22;10539;53.686;9.158;2023-05-24T11:55:39;14.60;99.90
20759;DHT22;10539;53.686;9.158;2023-05-24T11:58:36;14.60;99.90
20759;DHT22;10539;53.686;9.158;2023-05-24T12:01:06;14.60;99.90
20759;DHT22;10539;53.686;9.158;2023-05-24T12:03:31;14.50;99.90
20759;DHT22;10539;53.686;9.158;2023-05-24T12:05:57;14.50;99.90
20759;DHT22;10539;53.686;9.158;2023-05-24T12:08:24;14.50;99.90
20759;DHT22;10539;53.686;9.158;2023-05-24T12:10:49;14.50;99.90
20759;DHT22;10539;53.686;9.158;2023-05-24T12:13:24;14.50;99.90
20759;DHT22;10539;53.686;9.158;2023-05-24T12:15:53;14.60;99.90
20759;DHT22;10539;53.686;9.158;2023-05-24T12:18:20;14.60;99.90
20759;DHT22;10539;53.686;9.158;2023-05-24T12:20:50;14.60;99.90
20759;DHT22;10539;53.686;9.158;2023-05-24T12:23:19;14.60;99.90
20759;DHT22;10539;53.686;9.158;2023-05-24T12:25:46;14.70;99.90
20759;DHT22;10539;53.686;9.158;2023-05-24T12:28:12;14.80;99.90
20759;DHT22;10539;53.686;9.158;2023-05-24T12:30:38;14.90;99.90
20759;DHT22;10539;53.686;9.158;2023-05-24T12:33:08;15.00;99.90
20759;DHT22;10539;53.686;9.158;2023-05-24T12:35:34;15.20;99.90
20759;DHT22;10539;53.686;9.158;2023-05-24T12:38:00;15.30;99.90
20759;DHT22;10539;53.686;9.158;2023-05-24T12:40:26;15.50;99.90
20759;DHT22;10539;53.686;9.158;2023-05-24T12:42:53;15.60;99.90
20759;DHT22;10539;53.686;9.158;2023-05-24T12:45:26;15.70;99.90
20759;DHT22;10539;53.686;9.158;2023-05-24T12:47:52;15.70;99.90
20759;DHT22;10539;53.686;9.158;2023-05-24T12:50:19;15.70;99.90
20759;DHT22;10539;53.686;9.158;2023-05-24T12:52:46;15.70;99.90
20759;DHT22;10539;53.686;9.158;2023-05-24T12:55:13;15.70;99.90
20759;DHT22;10539;53.686;9.158;2023-05-24T12:57:40;15.70;99.90
20759;DHT22;10539;53.686;9.158;2023-05-24T13:00:08;15.70;99.90
20759;DHT22;10539;53.686;9.158;2023-05-24T13:02:35;15.70;99.90
20759;DHT22;10539;53.686;9.158;2023-05-24T13:05:01;15.80;99.90
20759;DHT22;10539;53.686;9.158;2023-05-24T13:07:29;15.90;99.90
20759;DHT22;10539;53.686;9.158;2023-05-24T13:09:55;16.00;99.90
20759;DHT22;10539;53.686;9.158;2023-05-24T13:12:21;15.90;99.90
20759;DHT22;10539;53.686;9.158;2023-05-24T13:14:46;15.90;99.90
20759;DHT22;10539;53.686;9.158;2023-05-24T13:17:12;15.90;99.90
20759;DHT22;10539;53.686;9.158;2023-05-24T13:19:40;15.80;99.90
20759;DHT22;10539;53.686;9.158;2023-05-24T13:22:06;15.80;99.90
20759;DHT22;10539;53.686;9.158;2023-05-24T13:24:31;15.90;99.90
20759;DHT22;10539;53.686;9.158;2023-05-24T13:26:57;16.10;99.90
20759;DHT22;10539;53.686;9.158;2023-05-24T13:29:23;16.20;99.90
20759;DHT22;10539;53.686;9.158;2023-05-24T13:31:49;16.30;99.90
20759;DHT22;10539;53.686;9.158;2023-05-24T13:34:15;16.50;99.90
20759;DHT22;10539;53.686;9.158;2023-05-24T13:36:42;16.50;99.90
20759;DHT22;10539;53.686;9.158;2023-05-24T13:39:08;16.50;99.90
20759;DHT22;10539;53.686;9.158;2023-05-24T13:41:35;16.50;99.90
20759;DHT22;10539;53.686;9.158;2023-05-24T13:44:01;16.50;99.90
20759;DHT22;10539;53.686;9.158;2023-05-24T13:46:28;16.50;99.90
20759;DHT22;10539;53.686;9.158;2023-05-24T13:48:54;16.60;99.90
20759;DHT22;10539;53.686;9.158;2023-05-24T13:51:22;16.60;99.90
20759;DHT22;10539;53.686;9.158;2023-05-24T13:53:48;16.70;99.90
20759;DHT22;10539;53.686;9.158;2023-05-24T13:56:14;16.60;99.90
20759;DHT22;10539;53.686;9.158;2023-05-24T13:58:41;16.60;99.90
20759;DHT22;10539;53.686;9.158;2023-05-24T14:01:08;16.60;99.90
20759;DHT22;10539;53.686;9.158;2023-05-24T14:03:34;16.70;99.90
20759;DHT22;10539;53.686;9.158;2023-05-24T14:05:59;16.70;99.90
20759;DHT22;10539;53.686;9.158;2023-05-24T14:08:26;16.80;99.90
20759;DHT22;10539;53.686;9.158;2023-05-24T14:10:52;16.90;99.90
20759;DHT22;10539;53.686;9.158;2023-05-24T14:13:18;16.90;99.90
20759;DHT22;10539;53.686;9.158;2023-05-24T14:15:44;17.00;99.90
20759;DHT22;10539;53.686;9.158;2023-05-24T14:18:11;17.20;99.90
20759;DHT22;10539;53.686;9.158;2023-05-24T14:20:37;17.10;99.90
20759;DHT22;10539;53.686;9.158;2023-05-24T14:23:05;17.10;99.90
20759;DHT22;10539;53.686;9.158;2023-05-24T14:25:31;17.10;99.90
20759;DHT22;10539;53.686;9.158;2023-05-24T14:27:58;17.10;99.90
20759;DHT22;10539;53.686;9.158;2023-05-24T14:30:24;17.10;99.90
20759;DHT22;10539;53.686;9.158;2023-05-24T14:32:50;17.10;99.90
20759;DHT22;10539;53.686;9.158;2023-05-24T14:35:16;17.00;99.90
20759;DHT22;10539;53.686;9.158;2023-05-24T14:37:41;17.00;99.90
20759;DHT22;10539;53.686;9.158;2023-05-24T14:40:08;17.10;99.90
20759;DHT22;10539;53.686;9.158;2023-05-24T14:42:34;17.00;99.90
20759;DHT22;10539;53.686;9.158;2023-05-24T14:45:00;17.00;99.90
20759;DHT22;10539;53.686;9.158;2023-05-24T14:47:26;17.10;99.90
20759;DHT22;10539;53.686;9.158;2023-05-24T14:49:52;17.00;99.90
20759;DHT22;10539;53.686;9.158;2023-05-24T14:52:18;17.10;99.90
20759;DHT22;10539;53.686;9.158;2023-05-24T14:54:44;17.20;99.90
20759;DHT22;10539;53.686;9.158;2023-05-24T14:57:10;17.20;99.90
20759;DHT22;10539;53.686;9.158;2023-05-24T14:59:36;17.30;99.90
20759;DHT22;10539;53.686;9.158;2023-05-24T15:02:02;17.30;99.90
20759;DHT22;10539;53.686;9.158;2023-05-24T15:04:28;17.30;99.90
20759;DHT22;10539;53.686;9.158;2023-05-24T15:06:54;17.30;99.90
20759;DHT22;10539;53.686;9.158;2023-05-24T15:09:20;17.30;99.90
20759;DHT22;10539;53.686;9.158;2023-05-24T15:11:46;17.20;99.90
20759;DHT22;10539;53.686;9.158;2023-05-24T15:14:11;17.00;99.90
20759;DHT22;10539;53.686;9.158;2023-05-24T15:16:37;17.00;99.90
20759;DHT22;10539;53.686;9.158;2023-05-24T15:19:03;16.90;99.90
20759;DHT22;10539;53.686;9.158;2023-05-24T15:21:29;16.80;99.90
20759;DHT22;10539;53.686;9.158;2023-05-24T15:23:54;16.70;99.90
20759;DHT22;10539;53.686;9.158;2023-05-24T15:26:20;16.70;99.90
20759;DHT22;10539;53.686;9.158;2023-05-24T15:28:47;16.70;99.90
20759;DHT22;10539;53.686;9.158;2023-05-24T15:31:12;16.70;99.90
20759;DHT22;10539;53.686;9.158;2023-05-24T15:33:38;16.70;99.90
20759;DHT22;10539;53.686;9.158;2023-05-24T15:36:04;16.80;99.90
20759;DHT22;10539;53.686;9.158;2023-05-24T15:38:30;16.90;99.90
20759;DHT22;10539;53.686;9.158;2023-05-24T15:40:56;17.00;99.90
20759;DHT22;10539;53.686;9.158;2023-05-24T15:43:21;17.00;99.90